EWG3EV EDDL-LIML
Flight info
| Callsign | EWG3EV |
|---|---|
| Flight time | 1h 10m |
| Altitude | 37000 |
| Route | DODEN1T/23L DODEN Y852 NATOR DCT TRA DCT RIPUS DCT GERSA DCT SOSON DCT ODINA |
| Aircraft | A319/M-SDE3FGHIRWY/LB1 |
Departure
| Time | 2026-05-04 16:00 |
|---|---|
| Airport | Düsseldorf Airport (EDDL) |
Arrival
| Time | 2026-05-04 17:10 |
|---|---|
| Airport | Milano Linate Airport (LIML) |
| Time | Latitude | Longitude | Altitude | Speed | Heading |
|---|---|---|---|---|---|
| 2026-05-04 15:19 | 51.28036 | 6.76365 | 126 ft | 0 kts | 197° |
| 2026-05-04 15:49 | 51.28054 | 6.76375 | 123 ft | 4 kts | 210° |
| 2026-05-04 15:49 | 51.28072 | 6.76401 | 124 ft | 4 kts | 251° |
| 2026-05-04 15:50 | 51.28071 | 6.76437 | 123 ft | 4 kts | 310° |
| 2026-05-04 15:50 | 51.28063 | 6.76450 | 125 ft | 0 kts | 327° |
| 2026-05-04 15:53 | 51.28064 | 6.76449 | 128 ft | 1 kts | 327° |
| 2026-05-04 15:54 | 51.28079 | 6.76433 | 125 ft | 3 kts | 327° |
| 2026-05-04 15:54 | 51.28123 | 6.76419 | 127 ft | 10 kts | 7° |
| 2026-05-04 15:54 | 51.28187 | 6.76431 | 127 ft | 9 kts | 7° |
| 2026-05-04 15:54 | 51.28251 | 6.76466 | 124 ft | 10 kts | 47° |
| 2026-05-04 15:55 | 51.28304 | 6.76497 | 122 ft | 10 kts | 333° |
| 2026-05-04 15:55 | 51.28360 | 6.76506 | 126 ft | 8 kts | 44° |
| 2026-05-04 15:55 | 51.28396 | 6.76581 | 124 ft | 9 kts | 53° |
| 2026-05-04 15:55 | 51.28436 | 6.76665 | 126 ft | 10 kts | 52° |
| 2026-05-04 15:56 | 51.28479 | 6.76754 | 124 ft | 10 kts | 52° |
| 2026-05-04 15:56 | 51.28524 | 6.76847 | 124 ft | 11 kts | 52° |
| 2026-05-04 15:56 | 51.28576 | 6.76957 | 128 ft | 14 kts | 52° |
| 2026-05-04 15:56 | 51.28643 | 6.77097 | 129 ft | 18 kts | 53° |
| 2026-05-04 15:57 | 51.28727 | 6.77274 | 129 ft | 22 kts | 52° |
| 2026-05-04 15:57 | 51.28832 | 6.77495 | 129 ft | 27 kts | 52° |
| 2026-05-04 15:57 | 51.28956 | 6.77754 | 127 ft | 30 kts | 53° |
| 2026-05-04 15:57 | 51.29080 | 6.78015 | 128 ft | 29 kts | 52° |
| 2026-05-04 15:58 | 51.29196 | 6.78257 | 138 ft | 25 kts | 53° |
| 2026-05-04 15:58 | 51.29292 | 6.78459 | 147 ft | 20 kts | 53° |
| 2026-05-04 15:58 | 51.29385 | 6.78573 | 152 ft | 16 kts | 2° |
| 2026-05-04 15:58 | 51.29496 | 6.78558 | 152 ft | 16 kts | 354° |
| 2026-05-04 15:59 | 51.29548 | 6.78522 | 152 ft | 3 kts | 251° |
| 2026-05-04 15:59 | 51.29532 | 6.78495 | 151 ft | 6 kts | 229° |
| 2026-05-04 15:59 | 51.29476 | 6.78380 | 148 ft | 25 kts | 232° |
| 2026-05-04 15:59 | 51.29229 | 6.77864 | 134 ft | 91 kts | 232° |
| 2026-05-04 16:00 | 51.28729 | 6.76813 | 128 ft | 145 kts | 232° |
| 2026-05-04 16:00 | 51.28084 | 6.75471 | 601 ft | 150 kts | 231° |
| 2026-05-04 16:00 | 51.27452 | 6.74133 | 1205 ft | 151 kts | 231° |
| 2026-05-04 16:00 | 51.26793 | 6.72767 | 1610 ft | 166 kts | 232° |
| 2026-05-04 16:01 | 51.26070 | 6.71219 | 1989 ft | 182 kts | 232° |
| 2026-05-04 16:01 | 51.25278 | 6.69518 | 2336 ft | 202 kts | 232° |
| 2026-05-04 16:01 | 51.24374 | 6.67562 | 2635 ft | 230 kts | 232° |
| 2026-05-04 16:01 | 51.23397 | 6.65451 | 3261 ft | 246 kts | 229° |
| 2026-05-04 16:02 | 51.21995 | 6.63786 | 3979 ft | 257 kts | 197° |
| 2026-05-04 16:02 | 51.20211 | 6.63636 | 4940 ft | 260 kts | 172° |
| 2026-05-04 16:02 | 51.16550 | 6.64340 | 6883 ft | 266 kts | 171° |
| 2026-05-04 16:03 | 51.14815 | 6.65382 | 7649 ft | 276 kts | 146° |
| 2026-05-04 16:03 | 51.13517 | 6.67684 | 8546 ft | 282 kts | 119° |
| 2026-05-04 16:03 | 51.13052 | 6.70720 | 9430 ft | 291 kts | 91° |
| 2026-05-04 16:03 | 51.13259 | 6.73901 | 10349 ft | 291 kts | 86° |
| 2026-05-04 16:04 | 51.13428 | 6.77182 | 10946 ft | 304 kts | 88° |
| 2026-05-04 16:04 | 51.13669 | 6.84327 | 11687 ft | 337 kts | 89° |
| 2026-05-04 16:04 | 51.13782 | 6.88067 | 12396 ft | 341 kts | 88° |
| 2026-05-04 16:05 | 51.13903 | 6.91853 | 13132 ft | 344 kts | 88° |
| 2026-05-04 16:05 | 51.14032 | 6.95698 | 13893 ft | 348 kts | 88° |
| 2026-05-04 16:05 | 51.14311 | 7.03472 | 15246 ft | 357 kts | 88° |
| 2026-05-04 16:06 | 51.14454 | 7.07462 | 15903 ft | 362 kts | 88° |
| 2026-05-04 16:06 | 51.14834 | 7.18337 | 17606 ft | 376 kts | 89° |
| 2026-05-04 16:07 | 51.15022 | 7.23928 | 18436 ft | 383 kts | 89° |
| 2026-05-04 16:07 | 51.15390 | 7.36777 | 19968 ft | 392 kts | 95° |
| 2026-05-04 16:08 | 51.15011 | 7.41095 | 20475 ft | 391 kts | 107° |
| 2026-05-04 16:08 | 51.10904 | 7.51979 | 21998 ft | 388 kts | 140° |
| 2026-05-04 16:09 | 51.06984 | 7.57947 | 23030 ft | 394 kts | 140° |
| 2026-05-04 16:09 | 51.03009 | 7.63992 | 23906 ft | 400 kts | 140° |
| 2026-05-04 16:10 | 50.98962 | 7.70135 | 24722 ft | 404 kts | 140° |
| 2026-05-04 16:11 | 50.92193 | 7.78038 | 25936 ft | 405 kts | 152° |
| 2026-05-04 16:11 | 50.89782 | 7.80410 | 26341 ft | 408 kts | 152° |
| 2026-05-04 16:12 | 50.82492 | 7.87575 | 27513 ft | 414 kts | 152° |
| 2026-05-04 16:12 | 50.75102 | 7.94828 | 28680 ft | 421 kts | 152° |
| 2026-05-04 16:13 | 50.70098 | 7.99715 | 29401 ft | 427 kts | 153° |
| 2026-05-04 16:13 | 50.65021 | 8.04651 | 30123 ft | 432 kts | 153° |
| 2026-05-04 16:14 | 50.59645 | 8.08770 | 30671 ft | 428 kts | 167° |
| 2026-05-04 16:14 | 50.53787 | 8.10181 | 31272 ft | 425 kts | 179° |
| 2026-05-04 16:15 | 50.44938 | 8.11316 | 32486 ft | 423 kts | 179° |
| 2026-05-04 16:16 | 50.39112 | 8.12091 | 33407 ft | 420 kts | 179° |
| 2026-05-04 16:16 | 50.30429 | 8.13233 | 34623 ft | 416 kts | 179° |
| 2026-05-04 16:17 | 50.24658 | 8.13978 | 35274 ft | 417 kts | 179° |
| 2026-05-04 16:18 | 50.15990 | 8.15104 | 36194 ft | 417 kts | 179° |
| 2026-05-04 16:18 | 50.13083 | 8.15481 | 36476 ft | 417 kts | 179° |
| 2026-05-04 16:19 | 50.04390 | 8.16676 | 36973 ft | 417 kts | 178° |
| 2026-05-04 16:19 | 49.98621 | 8.17500 | 36972 ft | 416 kts | 178° |
| 2026-05-04 16:20 | 49.84233 | 8.19491 | 36983 ft | 417 kts | 178° |
| 2026-05-04 16:22 | 49.69769 | 8.21490 | 36984 ft | 417 kts | 178° |
| 2026-05-04 16:23 | 49.52411 | 8.23859 | 36978 ft | 417 kts | 178° |
| 2026-05-04 16:25 | 49.35109 | 8.26212 | 36973 ft | 416 kts | 178° |
| 2026-05-04 16:26 | 49.14948 | 8.28928 | 36963 ft | 416 kts | 178° |
| 2026-05-04 16:28 | 49.00545 | 8.30847 | 36964 ft | 415 kts | 178° |
| 2026-05-04 16:29 | 48.80392 | 8.31288 | 36970 ft | 413 kts | 182° |
| 2026-05-04 16:31 | 48.66038 | 8.31505 | 36969 ft | 414 kts | 182° |
| 2026-05-04 16:32 | 48.48795 | 8.31720 | 36976 ft | 414 kts | 182° |
| 2026-05-04 16:33 | 48.37265 | 8.31868 | 36979 ft | 413 kts | 182° |
| 2026-05-04 16:34 | 48.28657 | 8.31974 | 36966 ft | 413 kts | 182° |
| 2026-05-04 16:35 | 48.11440 | 8.33470 | 36958 ft | 417 kts | 174° |
| 2026-05-04 16:36 | 48.02844 | 8.35560 | 36963 ft | 418 kts | 174° |
| 2026-05-04 16:37 | 47.94234 | 8.37644 | 36968 ft | 418 kts | 174° |
| 2026-05-04 16:38 | 47.82763 | 8.40397 | 36963 ft | 418 kts | 174° |
| 2026-05-04 16:39 | 47.68424 | 8.43804 | 36948 ft | 418 kts | 175° |
| 2026-05-04 16:40 | 47.56858 | 8.45530 | 36975 ft | 419 kts | 178° |
| 2026-05-04 16:41 | 47.42310 | 8.47602 | 36978 ft | 421 kts | 177° |
| 2026-05-04 16:43 | 47.27711 | 8.49749 | 36975 ft | 422 kts | 178° |
| 2026-05-04 16:43 | 47.18942 | 8.51022 | 36971 ft | 423 kts | 178° |
| 2026-05-04 16:45 | 47.02359 | 8.53435 | 36948 ft | 422 kts | 178° |
| 2026-05-04 16:46 | 46.87682 | 8.55566 | 36988 ft | 424 kts | 178° |
| 2026-05-04 16:47 | 46.81849 | 8.56403 | 36443 ft | 422 kts | 178° |
| 2026-05-04 16:47 | 46.75991 | 8.57231 | 35240 ft | 424 kts | 178° |
| 2026-05-04 16:48 | 46.67252 | 8.58478 | 33844 ft | 413 kts | 178° |
| 2026-05-04 16:48 | 46.64392 | 8.58888 | 33386 ft | 409 kts | 177° |
| 2026-05-04 16:49 | 46.58779 | 8.59692 | 32457 ft | 402 kts | 177° |
| 2026-05-04 16:49 | 46.53261 | 8.60477 | 31543 ft | 395 kts | 176° |
| 2026-05-04 16:50 | 46.47841 | 8.61246 | 30574 ft | 390 kts | 176° |
| 2026-05-04 16:50 | 46.42507 | 8.62002 | 29612 ft | 384 kts | 176° |
| 2026-05-04 16:51 | 46.37199 | 8.62750 | 28569 ft | 379 kts | 176° |
| 2026-05-04 16:51 | 46.34578 | 8.63118 | 27964 ft | 379 kts | 176° |
| 2026-05-04 16:51 | 46.29364 | 8.63841 | 26894 ft | 376 kts | 176° |
| 2026-05-04 16:52 | 46.24113 | 8.64578 | 25505 ft | 381 kts | 176° |
| 2026-05-04 16:52 | 46.21499 | 8.64948 | 24946 ft | 380 kts | 176° |
| 2026-05-04 16:53 | 46.16266 | 8.65687 | 23996 ft | 375 kts | 177° |
| 2026-05-04 16:53 | 46.08678 | 8.67897 | 22462 ft | 374 kts | 158° |
| 2026-05-04 16:54 | 46.06398 | 8.69656 | 21916 ft | 373 kts | 155° |
| 2026-05-04 16:55 | 45.97360 | 8.76742 | 19767 ft | 367 kts | 155° |
| 2026-05-04 16:55 | 45.92911 | 8.80216 | 18767 ft | 362 kts | 155° |
| 2026-05-04 16:56 | 45.88488 | 8.83651 | 17632 ft | 358 kts | 155° |
| 2026-05-04 16:56 | 45.82040 | 8.88662 | 16103 ft | 348 kts | 155° |
| 2026-05-04 16:57 | 45.79913 | 8.90311 | 15607 ft | 345 kts | 155° |
| 2026-05-04 16:57 | 45.75677 | 8.93591 | 14313 ft | 348 kts | 155° |
| 2026-05-04 16:58 | 45.69336 | 8.98490 | 12664 ft | 339 kts | 155° |
| 2026-05-04 16:58 | 45.67288 | 9.00074 | 12148 ft | 334 kts | 155° |
| 2026-05-04 16:59 | 45.63247 | 9.03196 | 11140 ft | 326 kts | 153° |
| 2026-05-04 17:00 | 45.55712 | 9.08979 | 10076 ft | 278 kts | 154° |
| 2026-05-04 17:00 | 45.50710 | 9.12543 | 8471 ft | 266 kts | 166° |
| 2026-05-04 17:01 | 45.47043 | 9.13143 | 7506 ft | 265 kts | 174° |
| 2026-05-04 17:01 | 45.43372 | 9.13672 | 6536 ft | 267 kts | 174° |
| 2026-05-04 17:02 | 45.39677 | 9.14176 | 5754 ft | 265 kts | 174° |
| 2026-05-04 17:02 | 45.36044 | 9.14712 | 5305 ft | 255 kts | 174° |
| 2026-05-04 17:03 | 45.34323 | 9.14973 | 5163 ft | 247 kts | 174° |
| 2026-05-04 17:03 | 45.32608 | 9.15238 | 4884 ft | 245 kts | 174° |
| 2026-05-04 17:03 | 45.29244 | 9.15795 | 4261 ft | 244 kts | 174° |
| 2026-05-04 17:04 | 45.25900 | 9.16460 | 3690 ft | 243 kts | 170° |
| 2026-05-04 17:04 | 45.23470 | 9.19560 | 3196 ft | 248 kts | 106° |
| 2026-05-04 17:05 | 45.23493 | 9.24308 | 3014 ft | 240 kts | 84° |
| 2026-05-04 17:05 | 45.24446 | 9.28739 | 3011 ft | 237 kts | 39° |
| 2026-05-04 17:06 | 45.27448 | 9.29569 | 3011 ft | 226 kts | 352° |
| 2026-05-04 17:06 | 45.29025 | 9.29379 | 3001 ft | 229 kts | 352° |
| 2026-05-04 17:07 | 45.32045 | 9.29047 | 2566 ft | 207 kts | 352° |
| 2026-05-04 17:07 | 45.32972 | 9.28948 | 2425 ft | 197 kts | 352° |
| 2026-05-04 17:07 | 45.34746 | 9.28758 | 2050 ft | 183 kts | 352° |
| 2026-05-04 17:07 | 45.35944 | 9.28631 | 1821 ft | 164 kts | 351° |
| 2026-05-04 17:08 | 45.37038 | 9.28514 | 1623 ft | 154 kts | 352° |
| 2026-05-04 17:08 | 45.39087 | 9.28293 | 1216 ft | 138 kts | 353° |
| 2026-05-04 17:08 | 45.40034 | 9.28190 | 1036 ft | 135 kts | 352° |
| 2026-05-04 17:09 | 45.40955 | 9.28094 | 843 ft | 132 kts | 352° |
| 2026-05-04 17:09 | 45.41879 | 9.27995 | 686 ft | 132 kts | 352° |
| 2026-05-04 17:09 | 45.42794 | 9.27895 | 514 ft | 131 kts | 351° |
| 2026-05-04 17:10 | 45.44489 | 9.27708 | 361 ft | 93 kts | 355° |
| 2026-05-04 17:10 | 45.45412 | 9.27734 | 357 ft | 17 kts | 27° |
| 2026-05-04 17:11 | 45.45448 | 9.27778 | 357 ft | 0 kts | 54° |
| 2026-05-04 17:11 | 45.45451 | 9.27782 | 364 ft | 2 kts | 54° |
| 2026-05-04 17:11 | 45.45499 | 9.27814 | 357 ft | 7 kts | 1° |
| 2026-05-04 17:12 | 45.45559 | 9.27814 | 358 ft | 10 kts | 0° |
| 2026-05-04 17:12 | 45.45747 | 9.27818 | 358 ft | 17 kts | 0° |
| 2026-05-04 17:13 | 45.45906 | 9.28009 | 357 ft | 7 kts | 82° |
| 2026-05-04 17:14 | 45.45979 | 9.28031 | 359 ft | 0 kts | 359° |